Time;durP1;ratioP1;P1;durP2;ratioP2;P2;SDS_P1;SDS_P2;PMS_P1;PMS_P2;Temp;Humidity;BMP_temperature;BMP_pressure;BME280_temperature;BME280_humidity;BME280_pressure;Samples;Min_cycle;Max_cycle;Signal;HPM_P1;HPM_P2
2023/10/10 00:01:39;;;;;;;4.60;3.10;;;;;;;;;;5060279;27;87591;-54
2023/10/10 00:04:10;;;;;;;4.93;2.97;;;;;;;;;;5059841;27;88722;-55
2023/10/10 00:06:39;;;;;;;3.47;3.17;;;;;;;;;;5059525;27;87877;-55
2023/10/10 00:09:11;;;;;;;5.70;4.00;;;;;;;;;;5059923;27;87585;-54
2023/10/10 00:11:45;;;;;;;4.47;3.67;;;;;;;;;;5059835;27;87675;-55
2023/10/10 00:14:18;;;;;;;5.70;3.23;;;;;;;;;;5059877;27;88653;-54
2023/10/10 00:16:47;;;;;;;7.03;3.83;;;;;;;;;;5059324;27;88198;-54
2023/10/10 00:19:21;;;;;;;5.77;3.50;;;;;;;;;;5059475;27;87514;-54
2023/10/10 00:21:50;;;;;;;6.20;3.37;;;;;;;;;;5059772;27;87912;-55
2023/10/10 00:24:21;;;;;;;4.10;3.13;;;;;;;;;;5059632;27;89703;-54
2023/10/10 00:26:52;;;;;;;8.43;4.03;;;;;;;;;;5059233;27;89037;-54
2023/10/10 00:29:26;;;;;;;6.93;3.87;;;;;;;;;;5059335;27;87444;-55
2023/10/10 00:32:05;;;;;;;7.47;3.47;;;;;;;;;;5060175;27;87502;-55
2023/10/10 00:34:37;;;;;;;7.73;3.77;;;;;;;;;;5058214;27;89493;-54
2023/10/10 00:37:10;;;;;;;7.50;3.73;;;;;;;;;;5059219;27;87578;-54
2023/10/10 00:39:40;;;;;;;6.73;3.33;;;;;;;;;;5059607;27;87638;-55
2023/10/10 00:42:19;;;;;;;10.53;4.70;;;;;;;;;;5059430;27;88261;-54
2023/10/10 00:44:48;;;;;;;5.93;2.97;;;;;;;;;;5059313;27;88287;-54
2023/10/10 00:47:26;;;;;;;5.87;3.97;;;;;;;;;;5059482;27;89003;-55
2023/10/10 00:49:55;;;;;;;5.40;3.67;;;;;;;;;;5058943;27;87573;-54
2023/10/10 00:52:23;;;;;;;7.70;3.20;;;;;;;;;;5059140;27;87688;-54
2023/10/10 00:54:53;;;;;;;6.67;3.47;;;;;;;;;;5059306;27;88521;-55
2023/10/10 00:57:25;;;;;;;4.60;3.20;;;;;;;;;;5047821;27;88223;-54
2023/10/10 00:59:56;;;;;;;6.10;3.47;;;;;;;;;;5059850;27;87405;-55
2023/10/10 01:02:26;;;;;;;6.57;4.03;;;;;;;;;;5059709;27;87681;-54
2023/10/10 01:05:04;;;;;;;5.37;3.40;;;;;;;;;;5058893;27;89714;-54
2023/10/10 01:07:34;;;;;;;7.37;4.10;;;;;;;;;;5058806;27;88098;-54
2023/10/10 01:10:11;;;;;;;8.50;3.87;;;;;;;;;;5059099;27;87390;-54
2023/10/10 01:12:40;;;;;;;7.40;4.07;;;;;;;;;;5058929;27;87708;-54
2023/10/10 01:15:14;;;;;;;6.17;3.47;;;;;;;;;;5059445;27;88421;-55
2023/10/10 01:17:43;;;;;;;5.17;3.17;;;;;;;;;;5058382;27;88058;-54
2023/10/10 01:20:19;;;;;;;5.63;4.23;;;;;;;;;;5058905;27;88028;-55
2023/10/10 01:22:48;;;;;;;6.20;3.77;;;;;;;;;;5059541;27;87751;-54
2023/10/10 01:25:31;;;;;;;7.83;3.33;;;;;;;;;;5059526;27;88581;-55
2023/10/10 01:28:02;;;;;;;4.10;3.30;;;;;;;;;;5058915;27;89108;-54
2023/10/10 01:30:56;;;;;;;4.43;3.47;;;;;;;;;;5058877;27;87466;-55
2023/10/10 01:33:35;;;;;;;5.97;3.40;;;;;;;;;;5058633;27;87657;-54
2023/10/10 01:36:08;;;;;;;8.40;3.97;;;;;;;;;;5058599;27;88458;-54
2023/10/10 01:38:55;;;;;;;5.77;3.43;;;;;;;;;;5056974;27;88816;-55
2023/10/10 01:41:31;;;;;;;3.93;2.83;;;;;;;;;;5054793;27;88538;-55
2023/10/10 01:44:10;;;;;;;4.63;3.20;;;;;;;;;;5061743;27;87312;-54
2023/10/10 01:46:40;;;;;;;4.43;2.87;;;;;;;;;;5061580;27;88630;-54
2023/10/10 01:49:19;;;;;;;5.43;3.83;;;;;;;;;;5061208;27;89095;-54
2023/10/10 01:51:50;;;;;;;4.20;2.93;;;;;;;;;;5061775;27;87467;-55
2023/10/10 01:54:21;;;;;;;4.37;2.93;;;;;;;;;;5062020;27;87645;-54
2023/10/10 01:56:52;;;;;;;5.03;3.57;;;;;;;;;;5060166;27;89100;-54
2023/10/10 01:59:24;;;;;;;4.63;3.30;;;;;;;;;;5058866;27;88011;-54
2023/10/10 02:01:57;;;;;;;5.87;3.17;;;;;;;;;;5061105;27;87322;-54
2023/10/10 02:04:28;;;;;;;4.43;2.57;;;;;;;;;;5061101;27;87673;-54
2023/10/10 02:07:04;;;;;;;4.90;3.37;;;;;;;;;;5061680;27;89421;-54
2023/10/10 02:09:35;;;;;;;4.17;2.90;;;;;;;;;;5061020;27;89085;-54
2023/10/10 02:12:12;;;;;;;5.27;3.57;;;;;;;;;;5057797;27;87570;-55
2023/10/10 02:14:43;;;;;;;6.50;3.77;;;;;;;;;;5058489;27;87647;-54
2023/10/10 02:17:23;;;;;;;6.73;3.00;;;;;;;;;;5045263;27;87418;-54
2023/10/10 02:19:58;;;;;;;5.33;3.03;;;;;;;;;;5062972;27;87796;-55
2023/10/10 02:22:47;;;;;;;4.90;3.03;;;;;;;;;;5064957;27;87332;-54
2023/10/10 02:25:37;;;;;;;7.07;3.63;;;;;;;;;;5064954;27;87558;-54
2023/10/10 02:28:19;;;;;;;4.83;3.20;;;;;;;;;;5064730;27;88556;-54
2023/10/10 02:30:51;;;;;;;3.83;2.87;;;;;;;;;;5053110;27;89204;-55
2023/10/10 02:33:31;;;;;;;7.13;2.97;;;;;;;;;;5064314;27;87216;-55
2023/10/10 02:35:59;;;;;;;4.30;2.50;;;;;;;;;;5065064;27;87423;-54
2023/10/10 02:38:36;;;;;;;2.57;2.37;;;;;;;;;;5063894;27;88566;-54
2023/10/10 02:41:22;;;;;;;4.73;2.93;;;;;;;;;;5062662;27;89211;-54
2023/10/10 02:44:05;;;;;;;6.13;3.43;;;;;;;;;;5061710;27;87498;-54
2023/10/10 02:46:37;;;;;;;5.57;2.83;;;;;;;;;;5062556;27;87568;-54
2023/10/10 02:49:22;;;;;;;3.43;2.53;;;;;;;;;;5062851;27;87557;-54
2023/10/10 02:51:55;;;;;;;5.10;3.30;;;;;;;;;;5062291;27;88193;-54
2023/10/10 02:54:32;;;;;;;3.60;3.17;;;;;;;;;;5064074;27;87585;-54
2023/10/10 02:57:26;;;;;;;3.97;2.93;;;;;;;;;;5063653;27;87869;-55
2023/10/10 02:59:59;;;;;;;4.27;3.57;;;;;;;;;;5061691;27;88543;-55
2023/10/10 03:02:30;;;;;;;5.57;4.23;;;;;;;;;;5063343;27;87384;-55
2023/10/10 03:05:16;;;;;;;5.33;3.33;;;;;;;;;;5063524;27;87283;-54
2023/10/10 03:07:51;;;;;;;7.23;3.97;;;;;;;;;;5063762;27;87548;-54
2023/10/10 03:10:35;;;;;;;5.97;3.87;;;;;;;;;;5061129;27;89527;-54
2023/10/10 03:13:13;;;;;;;6.20;3.60;;;;;;;;;;5062466;27;88954;-55
2023/10/10 03:15:51;;;;;;;5.40;4.00;;;;;;;;;;5063419;27;87525;-54
2023/10/10 03:18:27;;;;;;;8.43;4.53;;;;;;;;;;5061161;27;87498;-55
2023/10/10 03:21:18;;;;;;;6.03;4.50;;;;;;;;;;5062294;27;88489;-54
2023/10/10 03:23:55;;;;;;;7.77;4.00;;;;;;;;;;5060662;27;88953;-55
2023/10/10 03:29:37;;;;;;;6.20;4.23;;;;;;;;;;5060279;27;87775;-54
2023/10/10 03:32:26;;;;;;;6.73;4.33;;;;;;;;;;5060379;27;88702;-54
2023/10/10 03:35:05;;;;;;;6.73;4.47;;;;;;;;;;5062082;27;89135;-55
2023/10/10 03:37:40;;;;;;;14.70;4.40;;;;;;;;;;5061587;27;87343;-55
2023/10/10 03:40:27;;;;;;;6.13;4.50;;;;;;;;;;5060061;27;87600;-54
2023/10/10 05:25:59;;;;;;;8.40;4.30;;;;;;;;;;5057090;27;88841;-58
2023/10/10 05:28:30;;;;;;;6.30;4.00;;;;;;;;;;5058006;27;87433;-57
2023/10/10 05:30:58;;;;;;;7.43;5.03;;;;;;;;;;5061050;27;87659;-57
2023/10/10 05:33:27;;;;;;;6.73;4.50;;;;;;;;;;5060819;27;88583;-57
2023/10/10 05:35:58;;;;;;;10.17;4.60;;;;;;;;;;5059988;27;88112;-57
2023/10/10 05:38:27;;;;;;;6.23;4.57;;;;;;;;;;5060924;27;87526;-55
2023/10/10 05:40:57;;;;;;;5.07;4.10;;;;;;;;;;5061044;27;87595;-53
2023/10/10 05:43:33;;;;;;;4.73;3.90;;;;;;;;;;5055855;27;88681;-52
2023/10/10 05:46:03;;;;;;;8.63;4.73;;;;;;;;;;5058430;27;87916;-54
2023/10/10 05:48:32;;;;;;;6.10;4.33;;;;;;;;;;5060761;27;87336;-53
2023/10/10 05:51:00;;;;;;;6.17;4.10;;;;;;;;;;5060474;27;87617;-53
2023/10/10 05:53:32;;;;;;;7.97;4.77;;;;;;;;;;5060769;27;88417;-53
2023/10/10 05:56:12;;;;;;;7.70;3.90;;;;;;;;;;5062135;27;89075;-52
2023/10/10 05:58:47;;;;;;;4.87;3.93;;;;;;;;;;5061169;27;87479;-53
2023/10/10 06:01:16;;;;;;;7.43;4.67;;;;;;;;;;5064718;27;87617;-52
2023/10/10 06:03:46;;;;;;;7.90;4.40;;;;;;;;;;5064046;27;88517;-53
2023/10/10 06:06:18;;;;;;;7.60;4.87;;;;;;;;;;5063752;27;88414;-53
2023/10/10 06:08:46;;;;;;;7.00;4.40;;;;;;;;;;5064311;27;87485;-52
2023/10/10 06:11:15;;;;;;;7.43;5.00;;;;;;;;;;5064039;27;87817;-54
2023/10/10 06:13:45;;;;;;;10.20;5.33;;;;;;;;;;5064494;27;88500;-53
2023/10/10 06:16:14;;;;;;;7.53;4.93;;;;;;;;;;5063665;27;88299;-52
2023/10/10 06:18:44;;;;;;;5.37;4.10;;;;;;;;;;5063955;27;87454;-53
2023/10/10 06:21:14;;;;;;;11.23;5.20;;;;;;;;;;5063645;27;87535;-53
2023/10/10 06:23:44;;;;;;;6.43;4.73;;;;;;;;;;5063375;27;88466;-52
2023/10/10 06:26:13;;;;;;;7.93;5.23;;;;;;;;;;5063825;27;90158;-52
2023/10/10 06:28:51;;;;;;;6.50;5.03;;;;;;;;;;5063675;27;87446;-52
2023/10/10 06:31:21;;;;;;;7.43;5.03;;;;;;;;;;5061233;27;87508;-52
2023/10/10 06:33:50;;;;;;;8.67;5.37;;;;;;;;;;5063559;27;89637;-53
2023/10/10 06:36:33;;;;;;;11.10;5.70;;;;;;;;;;5063250;27;88002;-53
2023/10/10 06:41:47;;;;;;;8.37;5.50;;;;;;;;;;5061525;27;87715;-53
2023/10/10 06:44:17;;;;;;;9.27;5.07;;;;;;;;;;5063585;27;89645;-52
2023/10/10 06:46:48;;;;;;;8.70;5.70;;;;;;;;;;5063914;27;87530;-53
2023/10/10 06:49:20;;;;;;;8.47;5.50;;;;;;;;;;5062609;27;87419;-52
2023/10/10 06:51:50;;;;;;;8.60;5.33;;;;;;;;;;5062510;27;87609;-52
2023/10/10 06:54:27;;;;;;;13.57;6.00;;;;;;;;;;5060715;27;89589;-52
2023/10/10 06:57:05;;;;;;;10.80;5.53;;;;;;;;;;5062571;27;88050;-52
2023/10/10 06:59:35;;;;;;;11.63;5.67;;;;;;;;;;5062935;27;87561;-52
2023/10/10 07:02:13;;;;;;;11.73;5.93;;;;;;;;;;5063508;27;87570;-53
2023/10/10 07:04:42;;;;;;;11.60;5.97;;;;;;;;;;5060383;27;89590;-54
2023/10/10 07:07:13;;;;;;;10.43;6.77;;;;;;;;;;5062662;27;88186;-53
2023/10/10 07:09:42;;;;;;;11.40;6.60;;;;;;;;;;5061044;27;87559;-52
2023/10/10 07:12:11;;;;;;;8.60;5.43;;;;;;;;;;5063074;27;87637;-53
2023/10/10 07:14:43;;;;;;;8.13;5.97;;;;;;;;;;5060352;27;89676;-53
2023/10/10 07:17:13;;;;;;;8.67;6.23;;;;;;;;;;5063041;27;87911;-53
2023/10/10 07:21:04;;;;;;;11.37;6.80;;;;;;;;;;5061316;27;87519;-53
2023/10/10 07:22:45;;;;;;;10.93;7.10;;;;;;;;;;5059889;27;88267;-53
2023/10/10 07:25:31;;;;;;;11.50;6.17;;;;;;;;;;5062827;27;89787;-53
2023/10/10 07:28:01;;;;;;;9.53;6.10;;;;;;;;;;5060863;27;89311;-52
2023/10/10 07:30:35;;;;;;;10.77;6.53;;;;;;;;;;5063482;27;87559;-53
2023/10/10 07:33:12;;;;;;;10.77;6.67;;;;;;;;;;5061488;27;87344;-53
2023/10/10 07:35:44;;;;;;;10.53;6.30;;;;;;;;;;5060851;27;88533;-53
2023/10/10 07:38:15;;;;;;;11.63;6.43;;;;;;;;;;5063320;27;88055;-53
2023/10/10 07:40:44;;;;;;;10.57;6.20;;;;;;;;;;5063373;27;87297;-53
2023/10/10 07:43:12;;;;;;;10.67;7.20;;;;;;;;;;5062819;27;87643;-53
2023/10/10 07:45:44;;;;;;;8.47;6.13;;;;;;;;;;5062806;27;88521;-52
2023/10/10 07:51:07;;;;;;;11.70;7.20;;;;;;;;;;5060550;27;87399;-53
2023/10/10 07:53:42;;;;;;;12.17;6.73;;;;;;;;;;5063265;27;87558;-53
2023/10/10 07:56:10;;;;;;;11.37;6.37;;;;;;;;;;5062436;27;88597;-53
2023/10/10 07:58:49;;;;;;;11.67;5.93;;;;;;;;;;5060084;27;88031;-52
2023/10/10 08:01:21;;;;;;;8.73;5.30;;;;;;;;;;5060984;27;87304;-54
2023/10/10 08:03:51;;;;;;;12.10;7.60;;;;;;;;;;5062919;27;87650;-53
2023/10/10 08:06:21;;;;;;;10.00;6.67;;;;;;;;;;5059812;27;87563;-53
2023/10/10 08:09:09;;;;;;;9.33;7.17;;;;;;;;;;5062261;27;89061;-53
2023/10/10 08:11:37;;;;;;;11.33;7.00;;;;;;;;;;5061901;27;87413;-53
2023/10/10 08:14:07;;;;;;;10.10;6.40;;;;;;;;;;5062696;27;87609;-52
2023/10/10 08:16:37;;;;;;;8.40;6.10;;;;;;;;;;5060340;27;87479;-53
2023/10/10 08:19:08;;;;;;;13.63;5.57;;;;;;;;;;5061601;27;89338;-53
2023/10/10 08:21:38;;;;;;;10.97;6.83;;;;;;;;;;5061946;27;89164;-53
2023/10/10 08:24:07;;;;;;;9.97;6.10;;;;;;;;;;5064523;27;87465;-53
2023/10/10 08:26:42;;;;;;;9.90;5.97;;;;;;;;;;5059464;27;88492;-52
2023/10/10 08:29:10;;;;;;;11.20;5.37;;;;;;;;;;5061454;27;87817;-54
2023/10/10 08:31:39;;;;;;;11.33;6.40;;;;;;;;;;5056949;27;87506;-53
2023/10/10 08:34:09;;;;;;;6.90;5.63;;;;;;;;;;5061529;27;87670;-53
2023/10/10 08:36:38;;;;;;;9.33;5.77;;;;;;;;;;5059884;27;89899;-53
2023/10/10 08:39:24;;;;;;;10.33;4.87;;;;;;;;;;5064634;27;89120;-54
2023/10/10 08:41:53;;;;;;;12.90;5.77;;;;;;;;;;5062378;27;87485;-53
2023/10/10 08:44:22;;;;;;;9.07;5.07;;;;;;;;;;5052023;27;87858;-53
2023/10/10 08:46:52;;;;;;;7.30;5.50;;;;;;;;;;5041806;28;89519;-53
2023/10/10 08:49:22;;;;;;;7.93;5.40;;;;;;;;;;5042087;27;87488;-53
2023/10/10 08:51:52;;;;;;;12.63;6.13;;;;;;;;;;5061365;27;87573;-53
2023/10/10 08:54:21;;;;;;;7.27;5.40;;;;;;;;;;5062013;27;87570;-53
2023/10/10 08:57:00;;;;;;;12.33;5.80;;;;;;;;;;5061974;27;88705;-53
2023/10/10 08:59:29;;;;;;;8.07;4.77;;;;;;;;;;5062017;27;88062;-53
2023/10/10 09:02:00;;;;;;;9.10;5.10;;;;;;;;;;5060907;27;87591;-53
2023/10/10 09:04:30;;;;;;;8.67;5.30;;;;;;;;;;5062540;27;87280;-53
2023/10/10 09:07:00;;;;;;;8.33;5.77;;;;;;;;;;5061555;27;88857;-54
2023/10/10 09:09:35;;;;;;;9.10;5.43;;;;;;;;;;5062101;27;88942;-53
2023/10/10 09:12:04;;;;;;;8.57;5.03;;;;;;;;;;5063607;27;87376;-56
2023/10/10 09:14:40;;;;;;;7.50;4.87;;;;;;;;;;5063579;27;87647;-55
2023/10/10 09:17:09;;;;;;;88.27;57.07;;;;;;;;;;5062825;27;89675;-53
2023/10/10 09:19:47;;;;;;;140.83;68.77;;;;;;;;;;5060994;27;88923;-54
2023/10/10 09:22:28;;;;;;;109.97;53.40;;;;;;;;;;5060736;27;87400;-53
2023/10/10 09:24:59;;;;;;;85.70;45.77;;;;;;;;;;5061224;27;87166;-53
2023/10/10 09:27:28;;;;;;;65.70;34.13;;;;;;;;;;5061417;27;88576;-54
2023/10/10 09:29:57;;;;;;;58.30;29.47;;;;;;;;;;5063598;27;88383;-54
2023/10/10 09:32:42;;;;;;;46.43;23.73;;;;;;;;;;5060939;27;87602;-54
2023/10/10 09:35:13;;;;;;;42.10;23.40;;;;;;;;;;5045472;27;87604;-53
2023/10/10 09:37:44;;;;;;;37.83;22.87;;;;;;;;;;5060076;27;88462;-54
2023/10/10 09:40:22;;;;;;;37.20;18.73;;;;;;;;;;5064036;27;89155;-55
2023/10/10 09:43:11;;;;;;;37.90;19.00;;;;;;;;;;5064202;27;87344;-55
2023/10/10 09:45:55;;;;;;;30.97;17.40;;;;;;;;;;5061728;27;87727;-54
2023/10/10 09:48:59;;;;;;;31.83;16.87;;;;;;;;;;5059749;27;88476;-53
2023/10/10 09:54:17;;;;;;;26.07;14.70;;;;;;;;;;5055539;27;88221;-53
2023/10/10 09:56:47;;;;;;;33.43;14.30;;;;;;;;;;5058528;27;87478;-54
2023/10/10 09:59:18;;;;;;;22.43;13.90;;;;;;;;;;5060613;27;90039;-54
2023/10/10 10:01:47;;;;;;;25.17;13.50;;;;;;;;;;5060431;27;88101;-53
2023/10/10 10:04:18;;;;;;;19.50;12.33;;;;;;;;;;5063367;27;87572;-53
2023/10/10 10:06:54;;;;;;;16.70;9.70;;;;;;;;;;5062378;27;87561;-54
2023/10/10 10:09:45;;;;;;;21.27;11.33;;;;;;;;;;5060456;27;89657;-53
2023/10/10 10:12:30;;;;;;;15.10;9.97;;;;;;;;;;5062498;27;89142;-53
2023/10/10 10:15:06;;;;;;;14.10;9.40;;;;;;;;;;5059694;27;87454;-53
2023/10/10 10:17:47;;;;;;;20.80;9.70;;;;;;;;;;5056979;27;87442;-53
2023/10/10 10:20:23;;;;;;;17.87;9.73;;;;;;;;;;5063925;27;89462;-53
2023/10/10 10:22:54;;;;;;;17.77;9.80;;;;;;;;;;5062890;27;88206;-55
2023/10/10 10:25:28;;;;;;;17.07;9.80;;;;;;;;;;5060995;27;87517;-53
2023/10/10 10:28:00;;;;;;;15.33;8.67;;;;;;;;;;5063609;27;87624;-54
2023/10/10 10:30:46;;;;;;;14.70;7.63;;;;;;;;;;5061754;27;88550;-53
2023/10/10 10:33:15;;;;;;;15.67;8.30;;;;;;;;;;5060196;27;87378;-53
2023/10/10 10:36:14;;;;;;;14.67;8.23;;;;;;;;;;5060426;27;88107;-53
2023/10/10 10:41:41;;;;;;;10.93;7.40;;;;;;;;;;5056830;27;89591;-54
2023/10/10 10:44:12;;;;;;;12.37;7.43;;;;;;;;;;5058080;27;88083;-54
2023/10/10 10:46:47;;;;;;;15.27;7.23;;;;;;;;;;5061984;27;87666;-53
2023/10/10 10:49:22;;;;;;;15.67;6.93;;;;;;;;;;5058013;27;87489;-53
2023/10/10 10:52:10;;;;;;;16.03;7.77;;;;;;;;;;5062222;27;88632;-53
2023/10/10 10:54:41;;;;;;;13.67;7.57;;;;;;;;;;5061206;27;88272;-53
2023/10/10 10:57:27;;;;;;;11.43;6.47;;;;;;;;;;5058629;27;88290;-53
2023/10/10 11:00:40;;;;;;;10.67;6.40;;;;;;;;;;5061207;27;87603;-53
2023/10/10 11:03:11;;;;;;;13.63;7.53;;;;;;;;;;5060170;27;88707;-53
2023/10/10 11:05:40;;;;;;;14.23;6.77;;;;;;;;;;5058765;27;88911;-53
2023/10/10 11:08:13;;;;;;;12.23;6.10;;;;;;;;;;5060197;27;88397;-53
2023/10/10 11:10:46;;;;;;;12.90;6.73;;;;;;;;;;5059939;27;87539;-54
2023/10/10 11:13:14;;;;;;;15.50;7.50;;;;;;;;;;5059471;27;88538;-53
2023/10/10 11:15:43;;;;;;;13.27;7.33;;;;;;;;;;5062113;27;88407;-52
2023/10/10 11:18:12;;;;;;;11.60;7.47;;;;;;;;;;5059299;27;87462;-53
2023/10/10 11:20:57;;;;;;;16.10;8.33;;;;;;;;;;5061618;27;87642;-53
2023/10/10 11:23:41;;;;;;;13.30;7.97;;;;;;;;;;5058918;27;89678;-53
2023/10/10 11:26:14;;;;;;;13.23;7.77;;;;;;;;;;5062869;27;89143;-54
2023/10/10 11:28:47;;;;;;;11.57;6.80;;;;;;;;;;5055008;27;87555;-53
2023/10/10 11:31:23;;;;;;;12.47;8.17;;;;;;;;;;5057253;27;87534;-56
2023/10/10 11:34:10;;;;;;;12.20;7.57;;;;;;;;;;5062000;27;88680;-53
2023/10/10 11:36:41;;;;;;;10.97;6.60;;;;;;;;;;5060920;27;88999;-53
2023/10/10 11:39:31;;;;;;;11.80;7.40;;;;;;;;;;5063360;27;87275;-53
2023/10/10 11:42:03;;;;;;;13.23;8.17;;;;;;;;;;5054781;27;87443;-53
2023/10/10 11:44:33;;;;;;;12.17;6.83;;;;;;;;;;5057252;27;88721;-53
2023/10/10 11:47:07;;;;;;;10.50;7.50;;;;;;;;;;5046018;27;87815;-53
2023/10/10 11:49:36;;;;;;;13.17;8.43;;;;;;;;;;5061514;27;87535;-53
2023/10/10 11:52:04;;;;;;;15.80;8.70;;;;;;;;;;5049816;27;87707;-53
2023/10/10 11:54:33;;;;;;;10.93;7.87;;;;;;;;;;5062665;27;89527;-53
2023/10/10 11:57:03;;;;;;;11.57;7.80;;;;;;;;;;5071755;27;89521;-53
2023/10/10 11:59:33;;;;;;;12.87;8.20;;;;;;;;;;5062675;27;87444;-55
2023/10/10 12:02:13;;;;;;;14.63;7.47;;;;;;;;;;5052605;27;87746;-55
2023/10/10 12:04:44;;;;;;;13.00;6.63;;;;;;;;;;5059503;27;88514;-53
2023/10/10 12:07:14;;;;;;;14.00;8.40;;;;;;;;;;5045168;27;88946;-53
2023/10/10 12:09:45;;;;;;;12.60;7.53;;;;;;;;;;5054398;27;87391;-54
2023/10/10 12:12:15;;;;;;;10.83;7.07;;;;;;;;;;5046628;27;87684;-53
2023/10/10 12:14:44;;;;;;;12.07;7.33;;;;;;;;;;5059816;27;89836;-54
2023/10/10 12:17:14;;;;;;;12.17;6.70;;;;;;;;;;5061779;27;87514;-53
2023/10/10 12:19:45;;;;;;;10.60;6.03;;;;;;;;;;5056685;27;87592;-53
2023/10/10 12:22:17;;;;;;;12.47;6.90;;;;;;;;;;5061013;27;87627;-53
2023/10/10 12:24:45;;;;;;;8.60;5.60;;;;;;;;;;5058970;27;88439;-53
2023/10/10 12:27:15;;;;;;;7.73;5.43;;;;;;;;;;5061440;27;89687;-53
2023/10/10 12:29:47;;;;;;;11.20;6.40;;;;;;;;;;5051633;27;87686;-53
2023/10/10 12:32:18;;;;;;;7.67;5.30;;;;;;;;;;5055915;27;89479;-55
2023/10/10 12:34:47;;;;;;;9.67;5.93;;;;;;;;;;5061678;27;88518;-58
2023/10/10 12:37:16;;;;;;;9.07;5.60;;;;;;;;;;5062185;27;87390;-55
2023/10/10 12:39:45;;;;;;;9.23;5.53;;;;;;;;;;5062791;27;87271;-56
2023/10/10 12:42:14;;;;;;;10.83;6.13;;;;;;;;;;5062809;27;87451;-54
2023/10/10 12:44:47;;;;;;;8.50;5.17;;;;;;;;;;5056405;27;88430;-54
2023/10/10 12:47:19;;;;;;;7.03;4.30;;;;;;;;;;5061847;27;88947;-54
2023/10/10 12:49:47;;;;;;;10.20;4.73;;;;;;;;;;5059662;27;87462;-54
2023/10/10 12:52:17;;;;;;;8.07;4.33;;;;;;;;;;5061540;27;87602;-54
2023/10/10 12:54:56;;;;;;;6.57;4.37;;;;;;;;;;5061266;27;88611;-56
2023/10/10 12:57:32;;;;;;;9.43;3.80;;;;;;;;;;5051251;27;88035;-56
2023/10/10 13:02:45;;;;;;;6.47;4.07;;;;;;;;;;5055892;27;87646;-55
2023/10/10 13:05:13;;;;;;;6.83;4.30;;;;;;;;;;5056382;27;88489;-55
2023/10/10 13:07:43;;;;;;;5.40;3.73;;;;;;;;;;5054941;27;88463;-55
2023/10/10 13:10:13;;;;;;;8.70;3.90;;;;;;;;;;5052476;27;87374;-55
2023/10/10 13:12:45;;;;;;;9.07;4.87;;;;;;;;;;5058212;27;87954;-55
2023/10/10 13:15:27;;;;;;;6.47;3.77;;;;;;;;;;5058043;27;87551;-56
2023/10/10 13:18:11;;;;;;;6.43;3.93;;;;;;;;;;5056190;27;87473;-54
2023/10/10 13:20:41;;;;;;;5.60;3.50;;;;;;;;;;5045092;27;87991;-56
2023/10/10 13:23:10;;;;;;;5.67;3.77;;;;;;;;;;5051114;27;87446;-56
2023/10/10 13:25:39;;;;;;;6.33;4.30;;;;;;;;;;5058465;27;89600;-56
2023/10/10 13:28:09;;;;;;;6.90;3.97;;;;;;;;;;5058858;27;88859;-56
2023/10/10 13:30:39;;;;;;;10.07;3.77;;;;;;;;;;5059009;27;87444;-56
2023/10/10 13:33:08;;;;;;;8.07;3.77;;;;;;;;;;5058598;27;87316;-56
2023/10/10 13:35:37;;;;;;;7.60;3.83;;;;;;;;;;5058475;27;88502;-56
2023/10/10 13:38:06;;;;;;;9.00;3.93;;;;;;;;;;5053501;27;88735;-54
2023/10/10 13:40:37;;;;;;;5.40;4.23;;;;;;;;;;5058228;27;87519;-56
2023/10/10 13:43:08;;;;;;;7.27;4.50;;;;;;;;;;5056224;27;88286;-57
2023/10/10 13:45:38;;;;;;;12.20;5.60;;;;;;;;;;5049100;27;88545;-55
2023/10/10 13:48:13;;;;;;;10.57;4.67;;;;;;;;;;5054146;27;88223;-55
2023/10/10 13:50:45;;;;;;;7.07;4.53;;;;;;;;;;5057274;27;87386;-55
2023/10/10 13:53:14;;;;;;;9.37;5.23;;;;;;;;;;5055829;27;88125;-55
2023/10/10 13:55:42;;;;;;;9.30;4.77;;;;;;;;;;5054373;27;88464;-55
2023/10/10 13:58:12;;;;;;;13.47;4.90;;;;;;;;;;5057719;27;88014;-55
2023/10/10 14:00:43;;;;;;;9.07;4.70;;;;;;;;;;5057575;27;88124;-55
2023/10/10 14:03:14;;;;;;;9.50;4.63;;;;;;;;;;5057818;27;88073;-55
2023/10/10 14:06:00;;;;;;;10.33;5.37;;;;;;;;;;5057657;27;88754;-55
2023/10/10 14:08:30;;;;;;;7.20;4.20;;;;;;;;;;5057621;27;87986;-55
2023/10/10 14:11:00;;;;;;;8.53;5.00;;;;;;;;;;5057656;27;87617;-58
2023/10/10 14:13:28;;;;;;;8.53;5.33;;;;;;;;;;5058908;27;88036;-57
2023/10/10 14:15:57;;;;;;;12.63;5.83;;;;;;;;;;5060754;27;89688;-55
2023/10/10 14:18:29;;;;;;;8.23;5.10;;;;;;;;;;5062250;27;88126;-55
2023/10/10 14:21:01;;;;;;;8.73;5.33;;;;;;;;;;5062117;27;87475;-55
2023/10/10 14:23:35;;;;;;;6.93;4.63;;;;;;;;;;5061861;27;87558;-55
2023/10/10 14:26:13;;;;;;;7.67;4.97;;;;;;;;;;5061981;27;88516;-55
2023/10/10 14:28:42;;;;;;;13.87;5.93;;;;;;;;;;5061734;27;87999;-55
2023/10/10 14:31:12;;;;;;;7.73;5.07;;;;;;;;;;5062013;27;87567;-55
2023/10/10 14:33:42;;;;;;;9.30;5.67;;;;;;;;;;5061903;27;87387;-55
2023/10/10 14:36:14;;;;;;;10.40;5.10;;;;;;;;;;5061344;27;88575;-55
2023/10/10 14:38:44;;;;;;;9.37;4.57;;;;;;;;;;5061675;27;89035;-55
2023/10/10 14:41:16;;;;;;;8.57;5.00;;;;;;;;;;5061986;27;87364;-55
2023/10/10 14:43:47;;;;;;;8.40;5.03;;;;;;;;;;5061701;27;87545;-55
2023/10/10 14:46:21;;;;;;;8.33;4.80;;;;;;;;;;5061750;27;88258;-55
2023/10/10 14:49:00;;;;;;;7.73;5.07;;;;;;;;;;5061554;27;87859;-55
2023/10/10 14:51:33;;;;;;;8.70;5.97;;;;;;;;;;5051606;27;89218;-55
2023/10/10 14:54:06;;;;;;;10.03;5.30;;;;;;;;;;5061485;27;87578;-55
2023/10/10 14:56:36;;;;;;;9.63;5.37;;;;;;;;;;5061211;27;88562;-55
2023/10/10 14:59:05;;;;;;;6.97;4.97;;;;;;;;;;5059771;27;88230;-56
2023/10/10 15:01:35;;;;;;;6.20;3.80;;;;;;;;;;5059596;27;87769;-55
2023/10/10 15:04:06;;;;;;;7.43;4.73;;;;;;;;;;5060261;27;87646;-55
2023/10/10 15:06:34;;;;;;;8.10;4.73;;;;;;;;;;5060330;27;87468;-55
2023/10/10 15:09:03;;;;;;;6.83;4.67;;;;;;;;;;5059961;27;87992;-55
2023/10/10 15:11:32;;;;;;;8.20;5.30;;;;;;;;;;5060470;27;87558;-55
2023/10/10 15:14:06;;;;;;;11.20;4.73;;;;;;;;;;5060707;27;87503;-56
2023/10/10 15:16:35;;;;;;;16.03;5.87;;;;;;;;;;5061200;27;88575;-55
2023/10/10 15:19:07;;;;;;;7.73;5.10;;;;;;;;;;5060676;27;88005;-55
2023/10/10 15:21:35;;;;;;;7.97;4.87;;;;;;;;;;5061005;27;87574;-55
2023/10/10 15:24:04;;;;;;;8.10;5.27;;;;;;;;;;5060919;27;87677;-55
2023/10/10 15:26:34;;;;;;;10.33;4.73;;;;;;;;;;5060525;27;89226;-55
2023/10/10 15:29:03;;;;;;;8.17;5.40;;;;;;;;;;5060166;27;87574;-55
2023/10/10 15:31:32;;;;;;;8.57;4.87;;;;;;;;;;5054067;27;88816;-56
2023/10/10 15:34:00;;;;;;;9.13;5.57;;;;;;;;;;5056933;27;87634;-54
2023/10/10 15:36:31;;;;;;;7.47;5.17;;;;;;;;;;5056647;27;88691;-55
2023/10/10 15:39:03;;;;;;;8.50;5.07;;;;;;;;;;5058541;27;87988;-56
2023/10/10 15:41:32;;;;;;;6.73;4.40;;;;;;;;;;5059702;27;87528;-55
2023/10/10 15:44:02;;;;;;;8.47;5.30;;;;;;;;;;5059194;27;87506;-55
2023/10/10 15:46:31;;;;;;;7.43;4.63;;;;;;;;;;5058506;27;88478;-55
2023/10/10 15:49:00;;;;;;;9.10;5.07;;;;;;;;;;5057453;27;89531;-55
2023/10/10 15:51:29;;;;;;;6.50;4.20;;;;;;;;;;5058642;27;88961;-55
2023/10/10 15:54:02;;;;;;;6.43;4.70;;;;;;;;;;5058865;27;87704;-54
2023/10/10 15:56:31;;;;;;;5.43;4.03;;;;;;;;;;5057114;27;88995;-54
2023/10/10 15:59:00;;;;;;;6.40;4.63;;;;;;;;;;5057878;27;87470;-55
2023/10/10 16:01:30;;;;;;;5.50;4.27;;;;;;;;;;5058424;27;87617;-56
2023/10/10 16:04:00;;;;;;;9.67;4.73;;;;;;;;;;5060706;27;87683;-57
2023/10/10 16:06:33;;;;;;;88.67;32.40;;;;;;;;;;5059939;27;89104;-54
2023/10/10 16:09:10;;;;;;;128.13;55.63;;;;;;;;;;5055858;27;88580;-55
2023/10/10 16:11:40;;;;;;;117.63;51.03;;;;;;;;;;5058114;27;87503;-55
2023/10/10 16:14:11;;;;;;;92.90;44.37;;;;;;;;;;5059530;27;88010;-55
2023/10/10 16:16:43;;;;;;;78.83;33.57;;;;;;;;;;5055050;27;90257;-55
2023/10/10 16:19:13;;;;;;;69.03;32.23;;;;;;;;;;5046974;27;88241;-55
2023/10/10 16:21:42;;;;;;;76.50;33.27;;;;;;;;;;5038243;28;88216;-55
2023/10/10 16:24:14;;;;;;;63.80;30.77;;;;;;;;;;5038509;27;87660;-55
2023/10/10 16:26:42;;;;;;;61.30;30.23;;;;;;;;;;5055970;27;88392;-55
2023/10/10 16:29:11;;;;;;;67.03;30.30;;;;;;;;;;5058160;27;88959;-55
2023/10/10 16:31:43;;;;;;;61.43;30.20;;;;;;;;;;5057919;27;87566;-56
2023/10/10 16:34:12;;;;;;;57.77;30.00;;;;;;;;;;5058124;27;87621;-56
2023/10/10 16:36:40;;;;;;;59.63;29.63;;;;;;;;;;5057955;27;89755;-56
2023/10/10 16:39:11;;;;;;;55.23;29.97;;;;;;;;;;5055286;27;88718;-55
2023/10/10 16:41:40;;;;;;;57.27;28.87;;;;;;;;;;5057702;27;87777;-56
2023/10/10 16:44:14;;;;;;;47.53;24.60;;;;;;;;;;5057991;27;87636;-56
2023/10/10 16:46:42;;;;;;;49.30;25.50;;;;;;;;;;5057248;27;88493;-55
2023/10/10 16:49:11;;;;;;;48.90;24.57;;;;;;;;;;5057263;27;87957;-56
2023/10/10 16:51:39;;;;;;;51.87;25.97;;;;;;;;;;5045032;27;87493;-55
2023/10/10 16:54:11;;;;;;;63.90;27.43;;;;;;;;;;5038451;27;87702;-56
2023/10/10 16:56:43;;;;;;;47.33;26.60;;;;;;;;;;5037857;28;89819;-55
2023/10/10 16:59:12;;;;;;;56.60;28.73;;;;;;;;;;5052435;27;87960;-56
2023/10/10 17:01:41;;;;;;;57.63;26.17;;;;;;;;;;5058011;27;87507;-55
2023/10/10 17:04:10;;;;;;;48.13;24.20;;;;;;;;;;5058759;27;87862;-55
2023/10/10 17:06:39;;;;;;;54.13;26.07;;;;;;;;;;5058020;27;88834;-55
2023/10/10 17:09:10;;;;;;;58.97;26.23;;;;;;;;;;5057520;27;88157;-55
2023/10/10 17:11:38;;;;;;;45.07;22.37;;;;;;;;;;5056694;27;88088;-55